Time;durP1;ratioP1;P1;durP2;ratioP2;P2;SDS_P1;SDS_P2;PMS_P1;PMS_P2;Temp;Humidity;BMP_temperature;BMP_pressure;BME280_temperature;BME280_humidity;BME280_pressure;Samples;Min_cycle;Max_cycle;Signal;HPM_P1;HPM_P2
2022/01/03 00:00:48;;;;;;;;;;;;;;;8.52;92.50879;101015.9;;;;-86
2022/01/03 00:05:49;;;;;;;;;;;;;;;8.53;92.60059;101022.3;;;;-89
2022/01/03 00:10:46;;;;;;;;;;;;;;;8.53;92.46875;101022;;;;-89
2022/01/03 00:15:46;;;;;;;;;;;;;;;8.52;92.42285;101025.8;;;;-91
2022/01/03 00:20:56;;;;;;;;;;;;;;;8.52;92.35547;101033.3;;;;-91
2022/01/03 00:21:23;;;;;;;16.5;2.1;;;;;;;;;;;;;-90
2022/01/03 00:26:06;;;;;;;;;;;;;;;8.52;92.2998;101023.1;;;;-91
2022/01/03 00:30:49;;;;;;;;;;;;;;;8.52;92.20117;101021.2;;;;-91
2022/01/03 00:35:48;;;;;;;;;;;;;;;8.5;92.18652;101024.2;;;;-90
2022/01/03 00:40:50;;;;;;;;;;;;;;;8.47;92.13672;101031.4;;;;-86
2022/01/03 00:45:49;;;;;;;;;;;;;;;8.47;92.08398;101034.3;;;;-86
2022/01/03 00:50:50;;;;;;;;;;;;;;;8.46;92.02539;101035.7;;;;-88
2022/01/03 00:51:23;;;;;;;13.8;2;;;;;;;;;;;;;-87
2022/01/03 00:56:04;;;;;;;;;;;;;;;8.43;91.96289;101021.7;;;;-87
2022/01/03 01:00:58;;;;;;;;;;;;;;;8.41;91.96094;101025.2;;;;-86
2022/01/03 01:05:49;;;;;;;;;;;;;;;8.4;91.86035;101027.6;;;;-86
2022/01/03 01:10:46;;;;;;;;;;;;;;;8.41;91.7959;101037.9;;;;-86
2022/01/03 01:15:47;;;;;;;;;;;;;;;8.4;91.68262;101031;;;;-87
2022/01/03 01:20:46;;;;;;;;;;;;;;;8.38;91.70117;101035.5;;;;-86
2022/01/03 01:21:23;;;;;;;14.5;2.1;;;;;;;;;;;;;-87
2022/01/03 01:30:48;;;;;;;;;;;;;;;8.35;91.54004;101044.3;;;;-90
2022/01/03 01:35:50;;;;;;;;;;;;;;;8.36;91.31348;101051.8;;;;-89
2022/01/03 01:40:53;;;;;;;;;;;;;;;8.35;91.19922;101053;;;;-90
2022/01/03 01:45:52;;;;;;;;;;;;;;;8.32;91.20703;101043.2;;;;-90
2022/01/03 01:50:55;;;;;;;;;;;;;;;8.3;91.19238;101050.5;;;;-92
2022/01/03 01:51:24;;;;;;;14.2;2.3;;;;;;;;;;;;;-91
2022/01/03 01:55:53;;;;;;;;;;;;;;;8.29;91.14453;101055.4;;;;-92
2022/01/03 02:00:48;;;;;;;;;;;;;;;8.28;91.16406;101050.4;;;;-92
2022/01/03 02:05:52;;;;;;;;;;;;;;;8.27;91.17285;101047.5;;;;-91
2022/01/03 02:10:49;;;;;;;;;;;;;;;8.27;91.18457;101052.7;;;;-91
2022/01/03 02:15:57;;;;;;;;;;;;;;;8.26;91.14063;101051.3;;;;-90
2022/01/03 02:20:48;;;;;;;;;;;;;;;8.26;91.20605;101066.6;;;;-91
2022/01/03 02:21:23;;;;;;;22.2;2.1;;;;;;;;;;;;;-88
2022/01/03 02:25:46;;;;;;;;;;;;;;;8.26;91.2041;101062.9;;;;-91
2022/01/03 02:30:52;;;;;;;;;;;;;;;8.26;91.19531;101064.3;;;;-91
2022/01/03 02:35:48;;;;;;;;;;;;;;;8.27;91.20605;101057.3;;;;-89
2022/01/03 02:40:50;;;;;;;;;;;;;;;8.26;91.21484;101075.4;;;;-91
2022/01/03 02:45:46;;;;;;;;;;;;;;;8.25;91.32324;101075;;;;-90
2022/01/03 02:50:47;;;;;;;;;;;;;;;8.25;91.36719;101068.6;;;;-90
2022/01/03 02:51:23;;;;;;;26.5;2.8;;;;;;;;;;;;;-92
2022/01/03 02:55:48;;;;;;;;;;;;;;;8.27;91.41406;101068.9;;;;-89
2022/01/03 03:00:58;;;;;;;;;;;;;;;8.26;91.42578;101056.3;;;;-91
2022/01/03 03:05:51;;;;;;;;;;;;;;;8.28;91.53711;101065.9;;;;-90
2022/01/03 03:10:48;;;;;;;;;;;;;;;8.26;91.48047;101060.1;;;;-92
2022/01/03 03:15:48;;;;;;;;;;;;;;;8.25;91.52051;101064.9;;;;-91
2022/01/03 03:20:49;;;;;;;;;;;;;;;8.26;91.46777;101064.4;;;;-91
2022/01/03 03:21:24;;;;;;;19.8;2.3;;;;;;;;;;;;;-89
2022/01/03 03:25:49;;;;;;;;;;;;;;;8.26;91.43652;101071.5;;;;-90
2022/01/03 03:30:53;;;;;;;;;;;;;;;8.26;91.47852;101051.7;;;;-91
2022/01/03 03:36:01;;;;;;;;;;;;;;;8.26;91.48047;101075.1;;;;-91
2022/01/03 03:40:48;;;;;;;;;;;;;;;8.26;91.46973;101075.9;;;;-91
2022/01/03 03:45:56;;;;;;;;;;;;;;;8.26;91.51367;101080.5;;;;-91
2022/01/03 03:50:55;;;;;;;;;;;;;;;8.27;91.58984;101060.4;;;;-92
2022/01/03 03:51:23;;;;;;;20.2;2.8;;;;;;;;;;;;;-91
2022/01/03 03:55:49;;;;;;;;;;;;;;;8.27;91.62305;101061.6;;;;-91
2022/01/03 04:00:48;;;;;;;;;;;;;;;8.25;91.58594;101058.7;;;;-92
2022/01/03 04:05:48;;;;;;;;;;;;;;;8.24;91.57324;101052;;;;-91
2022/01/03 04:10:59;;;;;;;;;;;;;;;8.23;91.59473;101030.1;;;;-91
2022/01/03 04:15:53;;;;;;;;;;;;;;;8.24;91.47461;101036.2;;;;-90
2022/01/03 04:20:54;;;;;;;;;;;;;;;8.24;91.44141;101045.4;;;;-91
2022/01/03 04:21:25;;;;;;;20.4;2.7;;;;;;;;;;;;;-93
2022/01/03 04:25:47;;;;;;;;;;;;;;;8.24;91.39746;101035.9;;;;-91
2022/01/03 04:30:52;;;;;;;;;;;;;;;8.23;91.42871;101030.3;;;;-91
2022/01/03 04:35:53;;;;;;;;;;;;;;;8.22;91.44727;101022.6;;;;-91
2022/01/03 04:40:50;;;;;;;;;;;;;;;8.21;91.42285;101037.7;;;;-90
2022/01/03 04:45:47;;;;;;;;;;;;;;;8.21;91.43555;101023.9;;;;-90
2022/01/03 04:50:56;;;;;;;;;;;;;;;8.2;91.38867;101025.7;;;;-92
2022/01/03 04:51:26;;;;;;;18.8;2.6;;;;;;;;;;;;;-90
2022/01/03 04:55:51;;;;;;;;;;;;;;;8.19;91.35352;101018.3;;;;-90
2022/01/03 05:00:48;;;;;;;;;;;;;;;8.18;91.38672;101019.3;;;;-91
2022/01/03 05:05:52;;;;;;;;;;;;;;;8.16;91.34961;101015.6;;;;-91
2022/01/03 05:11:00;;;;;;;;;;;;;;;8.16;91.37012;101015.7;;;;-90
2022/01/03 05:15:58;;;;;;;;;;;;;;;8.14;91.46484;101024.8;;;;-91
2022/01/03 05:20:58;;;;;;;;;;;;;;;8.13;91.49609;101014.4;;;;-90
2022/01/03 05:21:25;;;;;;;21;2.9;;;;;;;;;;;;;-91
2022/01/03 05:25:54;;;;;;;;;;;;;;;8.12;91.48047;101011.8;;;;-90
2022/01/03 05:30:46;;;;;;;;;;;;;;;8.11;91.52441;101007.4;;;;-91
2022/01/03 05:35:51;;;;;;;;;;;;;;;8.09;91.53223;101006;;;;-91
2022/01/03 05:40:55;;;;;;;;;;;;;;;8.08;91.57324;101003.8;;;;-90
2022/01/03 05:45:46;;;;;;;;;;;;;;;8.06;91.66699;100992.5;;;;-90
2022/01/03 05:50:53;;;;;;;;;;;;;;;8.05;91.67578;101000.6;;;;-90
2022/01/03 05:51:27;;;;;;;18.9;2.6;;;;;;;;;;;;;-91
2022/01/03 05:55:53;;;;;;;;;;;;;;;8.02;91.71191;100988.2;;;;-91
2022/01/03 06:00:47;;;;;;;;;;;;;;;8.01;91.7666;100983.4;;;;-92
2022/01/03 06:06:06;;;;;;;;;;;;;;;8.01;91.78906;100979.2;;;;-90
2022/01/03 06:10:56;;;;;;;;;;;;;;;8.01;91.87402;100981.7;;;;-92
2022/01/03 06:15:53;;;;;;;;;;;;;;;8.01;91.87402;100972.7;;;;-91
2022/01/03 06:20:49;;;;;;;;;;;;;;;8;91.91797;100969.5;;;;-90
2022/01/03 06:21:24;;;;;;;17.4;2.5;;;;;;;;;;;;;-90
2022/01/03 06:25:55;;;;;;;;;;;;;;;8;91.95117;100965.2;;;;-90
2022/01/03 06:30:55;;;;;;;;;;;;;;;8;91.89453;100959.8;;;;-92
2022/01/03 06:35:55;;;;;;;;;;;;;;;7.98;91.93652;100955.5;;;;-90
2022/01/03 06:42:10;;;;;;;;;;;;;;;7.97;92.00879;100959.4;;;;-89
2022/01/03 06:47:21;;;;;;;;;;;;;;;7.97;92.02051;100952.4;;;;-90
2022/01/03 06:51:34;;;;;;;24.9;2.5;;;;;;;;;;;;;-90
2022/01/03 06:52:10;;;;;;;;;;;;;;;7.96;92.0752;100944.9;;;;-90
2022/01/03 06:57:09;;;;;;;;;;;;;;;7.95;92.00684;100953.5;;;;-90
2022/01/03 07:02:05;;;;;;;;;;;;;;;7.96;92.05078;100971.4;;;;-89
2022/01/03 07:07:12;;;;;;;;;;;;;;;7.96;92.04004;100965.1;;;;-89
2022/01/03 07:12:06;;;;;;;;;;;;;;;7.97;92.0752;100981.9;;;;-91
2022/01/03 07:21:30;;;;;;;22.9;2.8;;;;;;;;;;;;;-91
2022/01/03 07:22:07;;;;;;;;;;;;;;;7.98;92.02441;100973.6;;;;-89
2022/01/03 07:27:04;;;;;;;;;;;;;;;7.97;91.9541;100967.2;;;;-90
2022/01/03 07:32:03;;;;;;;;;;;;;;;7.96;91.92188;100956.2;;;;-89
2022/01/03 07:37:02;;;;;;;;;;;;;;;7.96;91.89746;100961;;;;-91
2022/01/03 07:42:02;;;;;;;;;;;;;;;7.94;91.89355;100976;;;;-88
2022/01/03 07:47:19;;;;;;;;;;;;;;;7.94;91.88281;100968.3;;;;-91
2022/01/03 07:51:35;;;;;;;24.4;2.5;;;;;;;;;;;;;-90
2022/01/03 07:52:03;;;;;;;;;;;;;;;7.93;91.82813;100968.5;;;;-90
2022/01/03 07:57:03;;;;;;;;;;;;;;;7.93;91.8457;100979.5;;;;-90
2022/01/03 08:02:05;;;;;;;;;;;;;;;7.92;91.8457;100985.1;;;;-89
2022/01/03 08:07:14;;;;;;;;;;;;;;;7.93;91.88281;100981.4;;;;-91
2022/01/03 08:12:05;;;;;;;;;;;;;;;7.94;91.91602;100986.6;;;;-91
2022/01/03 08:36:49;;;;;;;;;;;;;;;8;91.73242;100991.3;;;;-90
2022/01/03 08:51:27;;;;;;;21.6;2.7;;;;;;;;;;;;;-89
2022/01/03 09:04:46;;;;;;;;;;;;;;;8.11;91.49023;100965.7;;;;-91
2022/01/03 09:09:49;;;;;;;;;;;;;;;8.14;91.39844;100974.2;;;;-90
2022/01/03 09:14:43;;;;;;;;;;;;;;;8.16;91.3584;100975.8;;;;-90
2022/01/03 09:19:55;;;;;;;;;;;;;;;8.19;91.30957;100972.4;;;;-90
2022/01/03 09:21:30;;;;;;;20.6;2.3;;;;;;;;;;;;;-91
2022/01/03 09:24:46;;;;;;;;;;;;;;;8.23;91.20898;100984.4;;;;-90
2022/01/03 09:29:34;;;;;;;;;;;;;;;8.28;91.09863;100976.9;;;;-92
2022/01/03 09:34:47;;;;;;;;;;;;;;;8.32;90.91016;100975.7;;;;-89
2022/01/03 09:39:48;;;;;;;;;;;;;;;8.37;90.7666;100966;;;;-90
2022/01/03 09:44:40;;;;;;;;;;;;;;;8.4;90.68555;100965.2;;;;-92
2022/01/03 09:49:38;;;;;;;;;;;;;;;8.44;90.50684;100953.1;;;;-89
2022/01/03 09:51:28;;;;;;;16.3;2.2;;;;;;;;;;;;;-90
2022/01/03 09:54:41;;;;;;;;;;;;;;;8.48;90.29492;100957.8;;;;-89
2022/01/03 09:59:36;;;;;;;;;;;;;;;8.54;90.13281;100959.3;;;;-89
2022/01/03 10:04:47;;;;;;;;;;;;;;;8.58;89.90039;100960.4;;;;-91
2022/01/03 10:09:44;;;;;;;;;;;;;;;8.61;89.71875;100968.3;;;;-90
2022/01/03 10:14:37;;;;;;;;;;;;;;;8.64;89.63672;100968.2;;;;-89
2022/01/03 10:19:35;;;;;;;;;;;;;;;8.67;89.41211;100952.4;;;;-90
2022/01/03 10:21:37;;;;;;;17;2.3;;;;;;;;;;;;;-91
2022/01/03 10:24:41;;;;;;;;;;;;;;;8.7;89.27637;100964.4;;;;-90
2022/01/03 10:29:41;;;;;;;;;;;;;;;8.76;89.21094;100957.5;;;;-91
2022/01/03 10:34:36;;;;;;;;;;;;;;;8.81;89.22168;100952.8;;;;-88
2022/01/03 10:39:37;;;;;;;;;;;;;;;8.84;89.04102;100965.4;;;;-91
2022/01/03 10:44:41;;;;;;;;;;;;;;;8.86;89.01172;100949.1;;;;-90
2022/01/03 10:49:51;;;;;;;;;;;;;;;8.89;88.87402;100947.2;;;;-89
2022/01/03 10:51:34;;;;;;;21.8;2.3;;;;;;;;;;;;;-89
2022/01/03 10:54:48;;;;;;;;;;;;;;;8.91;88.76953;100940;;;;-90
2022/01/03 10:59:56;;;;;;;;;;;;;;;8.97;88.56055;100930.7;;;;-88
2022/01/03 11:04:42;;;;;;;;;;;;;;;9;88.48926;100927.7;;;;-90
2022/01/03 11:14:42;;;;;;;;;;;;;;;9.09;88.43066;100923.8;;;;-89
2022/01/03 11:21:24;;;;;;;21.7;2.7;;;;;;;;;;;;;-89
2022/01/03 11:29:44;;;;;;;;;;;;;;;9.13;88.30762;100913;;;;-88
2022/01/03 11:34:51;;;;;;;;;;;;;;;9.16;88.22559;100896.7;;;;-90
2022/01/03 11:39:38;;;;;;;;;;;;;;;9.19;87.95605;100886.6;;;;-91
2022/01/03 11:44:46;;;;;;;;;;;;;;;9.24;87.75781;100878.3;;;;-90
2022/01/03 11:49:40;;;;;;;;;;;;;;;9.25;87.75977;100884.5;;;;-90
2022/01/03 11:51:29;;;;;;;16;2.5;;;;;;;;;;;;;-91
2022/01/03 12:07:17;;;;;;;;;;;;;;;9.37;87.45313;100867.1;;;;-88
2022/01/03 12:12:24;;;;;;;;;;;;;;;9.39;87.31348;100845.8;;;;-89
2022/01/03 12:17:17;;;;;;;;;;;;;;;9.41;87.25098;100853.9;;;;-89
2022/01/03 12:21:41;;;;;;;21.6;2.6;;;;;;;;;;;;;-87
2022/01/03 12:22:11;;;;;;;;;;;;;;;9.46;87.20703;100842.9;;;;-88
2022/01/03 12:32:23;;;;;;;;;;;;;;;9.55;86.97168;100835.7;;;;-86
2022/01/03 12:37:03;;;;;;;;;;;;;;;9.55;87.05859;100841.8;;;;-89
2022/01/03 12:42:08;;;;;;;;;;;;;;;9.58;87.19727;100827.2;;;;-88
2022/01/03 12:47:16;;;;;;;;;;;;;;;9.55;87.15918;100816.3;;;;-89
2022/01/03 12:51:38;;;;;;;25.4;3;;;;;;;;;;;;;-91
2022/01/03 12:52:15;;;;;;;;;;;;;;;9.56;87.20508;100810.1;;;;-89
2022/01/03 12:57:20;;;;;;;;;;;;;;;9.55;87.27148;100828.8;;;;-88
2022/01/03 13:02:25;;;;;;;;;;;;;;;9.55;87.09277;100799.4;;;;-89
2022/01/03 13:07:10;;;;;;;;;;;;;;;9.53;87.13379;100800.8;;;;-89
2022/01/03 13:12:05;;;;;;;;;;;;;;;9.56;87.23828;100797.9;;;;-86
2022/01/03 13:17:13;;;;;;;;;;;;;;;9.54;86.99023;100796.4;;;;-90
2022/01/03 13:24:22;;;;;;;;;;;;;;;9.55;87.07129;100783.9;;;;-89
2022/01/03 13:29:15;;;;;;;;;;;;;;;9.56;87.05078;100783.6;;;;-90
2022/01/03 13:34:23;;;;;;;;;;;;;;;9.55;86.77344;100784.5;;;;-90
2022/01/03 13:39:18;;;;;;;;;;;;;;;9.52;86.93359;100773.3;;;;-89
2022/01/03 13:44:35;;;;;;;;;;;;;;;9.51;86.875;100768.8;;;;-86
2022/01/03 13:49:21;;;;;;;;;;;;;;;9.47;86.74609;100771.7;;;;-91
2022/01/03 13:51:26;;;;;;;14.2;2;;;;;;;;;;;;;-82
2022/01/03 13:54:24;;;;;;;;;;;;;;;9.43;86.89355;100757.4;;;;-84
2022/01/03 13:59:17;;;;;;;;;;;;;;;9.42;86.8457;100756.6;;;;-84
2022/01/03 14:04:15;;;;;;;;;;;;;;;9.38;86.73926;100740.2;;;;-84
2022/01/03 14:09:20;;;;;;;;;;;;;;;9.35;86.82031;100743.1;;;;-84
2022/01/03 14:14:20;;;;;;;;;;;;;;;9.28;86.96191;100744.1;;;;-84
2022/01/03 14:19:19;;;;;;;;;;;;;;;9.22;87.02637;100736.5;;;;-85
2022/01/03 14:21:42;;;;;;;21.6;2;;;;;;;;;;;;;-85
2022/01/03 14:24:15;;;;;;;;;;;;;;;9.16;87.30176;100721.2;;;;-83
2022/01/03 14:29:16;;;;;;;;;;;;;;;9.09;87.18945;100723.8;;;;-84
2022/01/03 14:34:15;;;;;;;;;;;;;;;9.02;87.20605;100719.8;;;;-85
2022/01/03 14:39:16;;;;;;;;;;;;;;;8.92;87.15527;100725.4;;;;-84
2022/01/03 14:44:17;;;;;;;;;;;;;;;8.85;87.23047;100724.4;;;;-85
2022/01/03 14:49:20;;;;;;;;;;;;;;;8.8;87.16211;100724.1;;;;-83
2022/01/03 14:51:25;;;;;;;12.4;1.4;;;;;;;;;;;;;-84
2022/01/03 14:54:22;;;;;;;;;;;;;;;8.72;87.23438;100708.7;;;;-83
2022/01/03 14:59:22;;;;;;;;;;;;;;;8.69;87.49219;100701.7;;;;-85
2022/01/03 15:04:16;;;;;;;;;;;;;;;8.65;87.51855;100697.6;;;;-85
2022/01/03 15:09:16;;;;;;;;;;;;;;;8.61;87.75293;100707.4;;;;-86
2022/01/03 15:14:15;;;;;;;;;;;;;;;8.56;87.85156;100710;;;;-84
2022/01/03 15:19:27;;;;;;;;;;;;;;;8.49;87.9248;100702.7;;;;-89
2022/01/03 15:21:29;;;;;;;9.6;1.5;;;;;;;;;;;;;-88
2022/01/03 15:24:16;;;;;;;;;;;;;;;8.42;88.04395;100704.4;;;;-87
2022/01/03 15:29:16;;;;;;;;;;;;;;;8.37;88.08789;100696;;;;-88
2022/01/03 15:34:21;;;;;;;;;;;;;;;8.33;88.16797;100697.1;;;;-88
2022/01/03 15:39:15;;;;;;;;;;;;;;;8.27;88.30859;100686.6;;;;-88
2022/01/03 15:44:16;;;;;;;;;;;;;;;8.23;88.41113;100681.9;;;;-87
2022/01/03 15:49:15;;;;;;;;;;;;;;;8.18;88.54492;100680;;;;-84
2022/01/03 15:51:25;;;;;;;11.1;1.3;;;;;;;;;;;;;-86
2022/01/03 15:54:19;;;;;;;;;;;;;;;8.14;88.74414;100675.9;;;;-88
2022/01/03 15:59:18;;;;;;;;;;;;;;;8.1;88.92285;100680.2;;;;-88
2022/01/03 16:04:22;;;;;;;;;;;;;;;8.08;89.02734;100665.3;;;;-87
2022/01/03 16:09:21;;;;;;;;;;;;;;;8.04;89.14063;100665.9;;;;-87
2022/01/03 16:14:15;;;;;;;;;;;;;;;8;89.3418;100659.1;;;;-86
2022/01/03 16:19:22;;;;;;;;;;;;;;;7.97;89.43262;100655.6;;;;-86
2022/01/03 16:21:25;;;;;;;9;1.6;;;;;;;;;;;;;-85
2022/01/03 16:24:16;;;;;;;;;;;;;;;7.94;89.61328;100648.1;;;;-86
2022/01/03 16:29:20;;;;;;;;;;;;;;;7.91;89.69531;100641.7;;;;-86
2022/01/03 16:34:17;;;;;;;;;;;;;;;7.86;89.80664;100633.1;;;;-87
2022/01/03 16:39:16;;;;;;;;;;;;;;;7.84;89.94434;100620;;;;-89
2022/01/03 16:44:23;;;;;;;;;;;;;;;7.81;90.06738;100612.5;;;;-91
2022/01/03 16:49:24;;;;;;;;;;;;;;;7.77;90.20508;100623.5;;;;-89
2022/01/03 16:51:29;;;;;;;7.7;1.1;;;;;;;;;;;;;-88
2022/01/03 16:54:15;;;;;;;;;;;;;;;7.75;90.33203;100614.6;;;;-88
2022/01/03 16:59:15;;;;;;;;;;;;;;;7.75;90.38379;100609.7;;;;-89
2022/01/03 17:04:16;;;;;;;;;;;;;;;7.72;90.44336;100607.3;;;;-86
2022/01/03 17:09:15;;;;;;;;;;;;;;;7.69;90.5166;100594.7;;;;-88
2022/01/03 17:14:21;;;;;;;;;;;;;;;7.67;90.56738;100587.1;;;;-87
2022/01/03 17:19:23;;;;;;;;;;;;;;;7.64;90.69141;100586.3;;;;-86
2022/01/03 17:21:25;;;;;;;15.1;1.6;;;;;;;;;;;;;-87
2022/01/03 17:24:16;;;;;;;;;;;;;;;7.64;90.72461;100573.9;;;;-87
2022/01/03 17:29:21;;;;;;;;;;;;;;;7.6;90.83691;100574.3;;;;-89
2022/01/03 17:34:19;;;;;;;;;;;;;;;7.58;90.87695;100567.9;;;;-88
2022/01/03 17:39:14;;;;;;;;;;;;;;;7.58;90.89746;100566;;;;-77
2022/01/03 17:44:14;;;;;;;;;;;;;;;7.56;90.95898;100562.2;;;;-78
2022/01/03 17:49:14;;;;;;;;;;;;;;;7.54;91.04297;100559.9;;;;-79
2022/01/03 17:51:22;;;;;;;9.7;1.4;;;;;;;;;;;;;-77
2022/01/03 17:54:14;;;;;;;;;;;;;;;7.52;91.0498;100558.7;;;;-78
2022/01/03 17:59:16;;;;;;;;;;;;;;;7.5;91.0791;100546.8;;;;-78
2022/01/03 18:04:22;;;;;;;;;;;;;;;7.49;91.06445;100555;;;;-79
2022/01/03 18:09:22;;;;;;;;;;;;;;;7.48;91.07324;100550.6;;;;-89
2022/01/03 18:14:32;;;;;;;;;;;;;;;7.45;91.11133;100541.4;;;;-89
2022/01/03 18:19:23;;;;;;;;;;;;;;;7.41;91.2041;100534.5;;;;-88
2022/01/03 18:21:28;;;;;;;11.6;1.9;;;;;;;;;;;;;-88
2022/01/03 18:24:22;;;;;;;;;;;;;;;7.4;91.38477;100528.2;;;;-87
2022/01/03 18:29:23;;;;;;;;;;;;;;;7.38;91.45898;100521.7;;;;-88
2022/01/03 18:34:22;;;;;;;;;;;;;;;7.39;91.4375;100508.7;;;;-88
2022/01/03 18:39:23;;;;;;;;;;;;;;;7.38;91.52344;100497.8;;;;-89
2022/01/03 18:44:23;;;;;;;;;;;;;;;7.37;91.56641;100487.1;;;;-85
2022/01/03 18:49:24;;;;;;;;;;;;;;;7.36;91.62012;100494.3;;;;-86
2022/01/03 18:51:22;;;;;;;6.5;1.1;;;;;;;;;;;;;-84
2022/01/03 18:54:25;;;;;;;;;;;;;;;7.36;91.68359;100496;;;;-84
2022/01/03 18:59:23;;;;;;;;;;;;;;;7.35;91.80176;100497.4;;;;-88
2022/01/03 19:04:24;;;;;;;;;;;;;;;7.35;91.79102;100484.6;;;;-90
2022/01/03 19:09:30;;;;;;;;;;;;;;;7.35;91.76953;100477.5;;;;-87
2022/01/03 19:14:29;;;;;;;;;;;;;;;7.36;91.78223;100483.9;;;;-87
2022/01/03 19:19:23;;;;;;;;;;;;;;;7.35;91.73633;100476.5;;;;-89
2022/01/03 19:21:24;;;;;;;11.6;1.4;;;;;;;;;;;;;-88
2022/01/03 19:24:23;;;;;;;;;;;;;;;7.35;91.79102;100478.4;;;;-89
2022/01/03 19:29:22;;;;;;;;;;;;;;;7.36;91.82813;100477.6;;;;-87
2022/01/03 19:39:27;;;;;;;;;;;;;;;7.35;91.95508;100463.2;;;;-87
2022/01/03 19:44:26;;;;;;;;;;;;;;;7.35;91.9209;100466.9;;;;-89
2022/01/03 19:49:28;;;;;;;;;;;;;;;7.34;91.95313;100461.3;;;;-89
2022/01/03 19:51:23;;;;;;;10.2;1.6;;;;;;;;;;;;;-88
2022/01/03 19:54:28;;;;;;;;;;;;;;;7.32;92.00391;100442.4;;;;-88
2022/01/03 19:59:24;;;;;;;;;;;;;;;7.31;92.02246;100430.2;;;;-88
2022/01/03 20:04:31;;;;;;;;;;;;;;;7.3;91.9873;100425;;;;-88
2022/01/03 20:09:24;;;;;;;;;;;;;;;7.28;92.08203;100415.6;;;;-88
2022/01/03 20:14:30;;;;;;;;;;;;;;;7.27;92.06934;100420.8;;;;-89
2022/01/03 20:19:28;;;;;;;;;;;;;;;7.26;92.17871;100409.7;;;;-89
2022/01/03 20:21:37;;;;;;;12.5;1.5;;;;;;;;;;;;;-90
2022/01/03 20:24:27;;;;;;;;;;;;;;;7.25;92.22949;100410.4;;;;-89
2022/01/03 20:29:26;;;;;;;;;;;;;;;7.24;92.20508;100397.3;;;;-88
2022/01/03 20:34:31;;;;;;;;;;;;;;;7.23;92.29297;100401.1;;;;-90
2022/01/03 20:44:24;;;;;;;;;;;;;;;7.21;92.2959;100389.8;;;;-88
2022/01/03 20:49:44;;;;;;;;;;;;;;;7.18;92.2793;100379.8;;;;-90
2022/01/03 20:51:27;;;;;;;9.8;1.7;;;;;;;;;;;;;-89
2022/01/03 20:54:38;;;;;;;;;;;;;;;7.19;92.3584;100384.5;;;;-90
2022/01/03 20:59:28;;;;;;;;;;;;;;;7.17;92.37598;100380.7;;;;-90
2022/01/03 21:04:24;;;;;;;;;;;;;;;7.16;92.37598;100369.9;;;;-90
2022/01/03 21:09:27;;;;;;;;;;;;;;;7.16;92.37402;100377.3;;;;-89
2022/01/03 21:14:23;;;;;;;;;;;;;;;7.15;92.39355;100375.9;;;;-89
2022/01/03 21:19:25;;;;;;;;;;;;;;;7.14;92.35938;100366.5;;;;-89
2022/01/03 21:21:22;;;;;;;9.3;1.4;;;;;;;;;;;;;-89
2022/01/03 21:24:28;;;;;;;;;;;;;;;7.13;92.39258;100353.2;;;;-89
2022/01/03 21:29:24;;;;;;;;;;;;;;;7.12;92.43164;100343.4;;;;-89
2022/01/03 21:34:25;;;;;;;;;;;;;;;7.12;92.50879;100342.1;;;;-89
2022/01/03 21:39:29;;;;;;;;;;;;;;;7.12;92.50879;100341.6;;;;-91
2022/01/03 21:44:25;;;;;;;;;;;;;;;7.12;92.51953;100340.3;;;;-90
2022/01/03 21:49:25;;;;;;;;;;;;;;;7.12;92.51953;100333.9;;;;-89
2022/01/03 21:51:22;;;;;;;11.3;1.6;;;;;;;;;;;;;-89
2022/01/03 21:54:24;;;;;;;;;;;;;;;7.12;92.49805;100329.7;;;;-91
2022/01/03 21:59:32;;;;;;;;;;;;;;;7.12;92.51953;100327.1;;;;-90
2022/01/03 22:04:25;;;;;;;;;;;;;;;7.12;92.55273;100324;;;;-89
2022/01/03 22:09:26;;;;;;;;;;;;;;;7.13;92.57617;100315.7;;;;-89
2022/01/03 22:14:27;;;;;;;;;;;;;;;7.11;92.65918;100311.7;;;;-90
2022/01/03 22:19:26;;;;;;;;;;;;;;;7.1;92.74316;100306.6;;;;-89
2022/01/03 22:21:21;;;;;;;8.5;1.4;;;;;;;;;;;;;-89
2022/01/03 22:24:23;;;;;;;;;;;;;;;7.11;92.75586;100299;;;;-85
2022/01/03 22:29:28;;;;;;;;;;;;;;;7.1;92.76563;100286.4;;;;-85
2022/01/03 22:34:23;;;;;;;;;;;;;;;7.08;92.82715;100284.5;;;;-85
2022/01/03 22:39:24;;;;;;;;;;;;;;;7.07;92.81445;100281.5;;;;-86
2022/01/03 22:44:23;;;;;;;;;;;;;;;7.05;92.85352;100274;;;;-86
2022/01/03 22:49:25;;;;;;;;;;;;;;;7.05;92.81055;100273.9;;;;-85
2022/01/03 22:51:20;;;;;;;11.5;1.8;;;;;;;;;;;;;-82
2022/01/03 22:54:23;;;;;;;;;;;;;;;7.04;92.76465;100266.7;;;;-86
2022/01/03 22:59:23;;;;;;;;;;;;;;;7.02;92.76074;100261.3;;;;-85
2022/01/03 23:04:23;;;;;;;;;;;;;;;7.02;92.70605;100257.1;;;;-85
2022/01/03 23:09:27;;;;;;;;;;;;;;;6.99;92.71094;100254.2;;;;-91
2022/01/03 23:14:26;;;;;;;;;;;;;;;6.98;92.70703;100247.4;;;;-88
2022/01/03 23:19:32;;;;;;;;;;;;;;;6.98;92.75098;100238.1;;;;-89
2022/01/03 23:21:21;;;;;;;13.3;2.2;;;;;;;;;;;;;-90
2022/01/03 23:24:25;;;;;;;;;;;;;;;6.97;92.79297;100227.7;;;;-89
2022/01/03 23:29:25;;;;;;;;;;;;;;;6.97;92.86914;100223.8;;;;-90
2022/01/03 23:34:29;;;;;;;;;;;;;;;6.98;92.83789;100229;;;;-90
2022/01/03 23:39:23;;;;;;;;;;;;;;;6.98;92.80762;100217.3;;;;-84
2022/01/03 23:44:25;;;;;;;;;;;;;;;6.97;92.79297;100214.1;;;;-84
2022/01/03 23:49:24;;;;;;;;;;;;;;;6.97;92.8252;100205.4;;;;-84
2022/01/03 23:51:21;;;;;;;8.3;1.5;;;;;;;;;;;;;-83
2022/01/03 23:54:24;;;;;;;;;;;;;;;6.95;92.78906;100197.5;;;;-86
2022/01/03 23:59:23;;;;;;;;;;;;;;;6.94;92.81934;100190.3;;;;-84
